createdAt,value
2023-04-18T00:00:17.332Z,12.65
2023-04-18T00:02:43.950Z,12.69
2023-04-18T00:05:10.663Z,12.65
2023-04-18T00:07:37.107Z,12.66
2023-04-18T00:10:03.503Z,12.68
2023-04-18T00:12:29.867Z,12.57
2023-04-18T00:14:56.246Z,12.65
2023-04-18T00:17:22.630Z,12.60
2023-04-18T00:19:49.041Z,12.24
2023-04-18T00:22:15.448Z,12.39
2023-04-18T00:24:41.829Z,12.47
2023-04-18T00:27:08.218Z,12.42
2023-04-18T00:29:34.584Z,12.40
2023-04-18T00:32:00.971Z,12.18
2023-04-18T00:34:27.330Z,12.37
2023-04-18T00:36:53.697Z,12.35
2023-04-18T00:39:20.081Z,12.31
2023-04-18T00:41:46.551Z,12.23
2023-04-18T00:44:13.200Z,12.16
2023-04-18T00:46:39.769Z,12.25
2023-04-18T00:49:06.171Z,12.39
2023-04-18T00:51:32.554Z,12.19
2023-04-18T00:53:58.912Z,12.37
2023-04-18T00:56:25.302Z,12.40
2023-04-18T00:58:51.714Z,12.46
2023-04-18T01:01:18.211Z,12.35
2023-04-18T01:03:44.874Z,12.52
2023-04-18T01:06:11.345Z,12.55
2023-04-18T01:08:37.710Z,12.69
2023-04-18T01:11:04.326Z,12.79
2023-04-18T01:13:30.802Z,12.82
2023-04-18T01:15:57.232Z,12.87
2023-04-18T01:18:23.618Z,12.81
2023-04-18T01:20:49.968Z,12.87
2023-04-18T01:23:16.360Z,12.87
2023-04-18T01:25:42.732Z,12.76
2023-04-18T01:28:09.126Z,12.91
2023-04-18T01:30:35.542Z,13.01
2023-04-18T01:33:01.969Z,12.92
2023-04-18T01:35:28.388Z,12.94
2023-04-18T01:37:54.740Z,12.94
2023-04-18T01:40:21.156Z,12.95
2023-04-18T01:42:47.540Z,12.91
2023-04-18T01:45:13.922Z,13.04
2023-04-18T01:47:40.399Z,12.94
2023-04-18T01:50:06.845Z,12.84
2023-04-18T01:52:33.453Z,12.72
2023-04-18T01:54:59.830Z,12.73
2023-04-18T01:57:26.198Z,12.77
2023-04-18T01:59:52.634Z,12.69
2023-04-18T02:02:19.138Z,12.82
2023-04-18T02:04:45.627Z,12.82
2023-04-18T02:07:12.281Z,12.92
2023-04-18T02:09:38.663Z,12.79
2023-04-18T02:12:05.084Z,12.70
2023-04-18T02:14:31.478Z,12.77
2023-04-18T02:16:58.112Z,12.80
2023-04-18T02:19:24.525Z,12.76
2023-04-18T02:21:50.899Z,12.57
2023-04-18T02:24:17.299Z,12.83
2023-04-18T02:26:43.672Z,12.83
2023-04-18T02:29:10.061Z,12.79
2023-04-18T02:31:36.502Z,12.74
2023-04-18T02:34:02.915Z,12.56
2023-04-18T02:36:29.282Z,12.83
2023-04-18T02:38:55.649Z,12.68
2023-04-18T02:41:22.480Z,12.77
2023-04-18T02:43:48.874Z,12.81
2023-04-18T02:46:15.372Z,12.83
2023-04-18T02:48:41.790Z,12.87
2023-04-18T02:51:08.382Z,12.90
2023-04-18T02:53:34.884Z,12.85
2023-04-18T02:56:01.282Z,12.97
2023-04-18T02:58:27.674Z,12.96
2023-04-18T03:00:54.182Z,12.98
2023-04-18T03:03:20.716Z,13.03
2023-04-18T03:05:47.184Z,13.08
2023-04-18T03:08:13.703Z,12.96
2023-04-18T03:10:40.051Z,12.72
2023-04-18T03:13:06.458Z,12.99
2023-04-18T03:15:32.892Z,12.78
2023-04-18T03:17:59.495Z,12.95
2023-04-18T03:20:26.000Z,13.07
2023-04-18T03:22:52.407Z,13.08
2023-04-18T03:25:18.829Z,13.09
2023-04-18T03:27:46.646Z,13.07
2023-04-18T03:30:13.044Z,13.03
2023-04-18T03:32:39.471Z,12.81
2023-04-18T03:35:05.915Z,12.91
2023-04-18T03:37:32.346Z,12.99
2023-04-18T03:39:58.816Z,12.99
2023-04-18T03:42:25.219Z,12.76
2023-04-18T03:44:51.585Z,12.89
2023-04-18T03:47:18.199Z,12.94
2023-04-18T03:49:44.589Z,13.06
2023-04-18T03:52:10.951Z,12.92
2023-04-18T03:54:37.328Z,12.97
2023-04-18T03:57:03.720Z,13.03
2023-04-18T03:59:30.096Z,13.01
2023-04-18T04:01:56.555Z,13.05
2023-04-18T04:04:23.075Z,13.05
2023-04-18T04:06:49.530Z,12.99
2023-04-18T04:09:15.926Z,13.00
2023-04-18T04:11:42.318Z,12.87
2023-04-18T04:14:08.710Z,12.58
2023-04-18T04:16:35.099Z,12.60
2023-04-18T04:19:04.378Z,12.75
2023-04-18T04:21:30.748Z,12.81
2023-04-18T04:23:57.099Z,12.92
2023-04-18T04:26:23.461Z,12.89
2023-04-18T04:28:49.852Z,12.95
2023-04-18T04:31:16.402Z,12.94
2023-04-18T04:33:42.868Z,12.84
2023-04-18T04:36:09.248Z,12.78
2023-04-18T04:38:35.618Z,12.87
2023-04-18T04:41:01.989Z,12.91
2023-04-18T04:43:28.391Z,12.79
2023-04-18T04:45:54.795Z,12.89
2023-04-18T04:48:21.198Z,12.76
2023-04-18T04:50:47.629Z,12.90
2023-04-18T04:53:14.117Z,12.89
2023-04-18T04:55:40.560Z,12.73
2023-04-18T04:58:06.928Z,12.81
2023-04-18T05:00:33.461Z,12.85
2023-04-18T05:03:00.087Z,12.53
2023-04-18T05:05:26.555Z,12.40
2023-04-18T05:07:52.944Z,12.46
2023-04-18T05:10:19.348Z,12.59
2023-04-18T05:12:45.725Z,12.42
2023-04-18T05:15:12.148Z,12.55
2023-04-18T05:17:38.590Z,12.64
2023-04-18T05:20:07.300Z,12.60
2023-04-18T05:22:34.074Z,12.59
2023-04-18T05:25:00.474Z,12.62
2023-04-18T05:27:26.890Z,12.61
2023-04-18T05:29:53.308Z,12.56
2023-04-18T05:32:19.895Z,12.69
2023-04-18T05:34:46.305Z,12.73
2023-04-18T05:37:12.687Z,12.73
2023-04-18T05:39:39.061Z,12.67
2023-04-18T05:42:05.461Z,12.62
2023-04-18T05:44:31.813Z,12.34
2023-04-18T05:46:58.176Z,12.46
2023-04-18T05:49:24.600Z,12.56
2023-04-18T05:51:51.001Z,12.61
2023-04-18T05:54:17.424Z,12.73
2023-04-18T05:56:43.910Z,12.79
2023-04-18T05:59:10.632Z,12.75
2023-04-18T06:01:37.038Z,12.73
2023-04-18T06:04:03.529Z,12.85
2023-04-18T06:06:30.092Z,12.97
2023-04-18T06:08:56.693Z,12.98
2023-04-18T06:11:23.064Z,12.91
2023-04-18T06:13:49.452Z,12.99
2023-04-18T06:16:15.839Z,13.02
2023-04-18T06:18:42.306Z,12.77
2023-04-18T06:21:08.688Z,12.83
2023-04-18T06:23:35.283Z,12.75
2023-04-18T06:26:01.689Z,12.73
2023-04-18T06:28:28.084Z,12.84
2023-04-18T06:30:54.532Z,12.99
2023-04-18T06:33:20.950Z,13.05
2023-04-18T06:35:47.416Z,13.15
2023-04-18T06:38:16.838Z,13.19
2023-04-18T06:40:43.431Z,13.14
2023-04-18T06:43:09.821Z,13.16
2023-04-18T06:45:36.477Z,13.20
2023-04-18T06:48:03.254Z,13.22
2023-04-18T06:50:30.076Z,13.16
2023-04-18T06:52:56.987Z,13.31
2023-04-18T06:55:23.512Z,13.47
2023-04-18T06:57:49.914Z,13.54
2023-04-18T07:00:16.339Z,13.54
2023-04-18T07:02:42.933Z,13.58
2023-04-18T07:05:09.700Z,13.79
2023-04-18T07:07:36.321Z,13.69
2023-04-18T07:10:02.824Z,13.57
2023-04-18T07:12:29.197Z,13.31
2023-04-18T07:14:55.583Z,13.28
2023-04-18T07:17:22.050Z,13.04
2023-04-18T07:19:48.478Z,13.41
2023-04-18T07:22:14.845Z,13.51
2023-04-18T07:24:41.271Z,13.43
2023-04-18T07:27:07.757Z,13.43
2023-04-18T07:29:34.441Z,12.91
2023-04-18T07:32:02.991Z,12.97
2023-04-18T07:34:29.677Z,12.88
2023-04-18T07:36:56.232Z,12.90
2023-04-18T07:39:22.881Z,13.14
2023-04-18T07:41:49.348Z,13.41
2023-04-18T07:44:15.954Z,13.60
2023-04-18T07:46:42.565Z,13.74
2023-04-18T07:49:09.083Z,13.86
2023-04-18T07:51:35.739Z,14.04
2023-04-18T07:54:02.258Z,14.21
2023-04-18T07:56:28.780Z,14.41
2023-04-18T07:58:55.212Z,14.49
2023-04-18T08:01:21.623Z,14.71
2023-04-18T08:03:48.233Z,14.99
2023-04-18T08:06:14.727Z,14.88
2023-04-18T08:08:41.107Z,14.88
2023-04-18T08:11:07.540Z,14.97
2023-04-18T08:13:33.940Z,14.85
2023-04-18T08:16:00.384Z,15.05
2023-04-18T08:18:26.841Z,15.27
2023-04-18T08:20:55.269Z,15.07
2023-04-18T08:23:21.705Z,15.10
2023-04-18T08:25:48.612Z,15.54
2023-04-18T08:28:15.082Z,15.66
2023-04-18T08:30:41.515Z,15.63
2023-04-18T08:33:07.985Z,15.84
2023-04-18T08:35:34.441Z,15.98
2023-04-18T08:38:00.815Z,16.31
2023-04-18T08:40:27.258Z,16.65
2023-04-18T08:42:53.921Z,16.80
2023-04-18T08:45:20.546Z,16.77
2023-04-18T08:47:47.038Z,17.03
2023-04-18T08:50:13.564Z,16.90
2023-04-18T08:52:39.955Z,16.85
2023-04-18T08:55:06.356Z,16.75
2023-04-18T08:57:32.821Z,16.65
2023-04-18T08:59:59.244Z,16.77
2023-04-18T09:02:25.793Z,16.52
2023-04-18T09:04:52.754Z,16.39
2023-04-18T09:07:19.390Z,16.69
2023-04-18T09:09:45.771Z,16.57
2023-04-18T09:12:12.176Z,16.81
2023-04-18T09:14:38.595Z,16.90
2023-04-18T09:17:05.093Z,16.99
2023-04-18T09:19:31.556Z,17.15
2023-04-18T09:21:57.991Z,17.23
2023-04-18T09:24:24.551Z,17.00
2023-04-18T09:26:51.076Z,17.02
2023-04-18T09:29:17.853Z,16.72
2023-04-18T09:31:44.223Z,16.78
2023-04-18T09:34:10.678Z,16.88
2023-04-18T09:36:37.146Z,16.83
2023-04-18T09:39:03.629Z,16.70
2023-04-18T09:41:30.117Z,16.78
2023-04-18T09:43:56.498Z,16.72
2023-04-18T09:46:23.057Z,16.86
2023-04-18T09:48:49.530Z,16.67
2023-04-18T09:51:15.933Z,16.46
2023-04-18T09:53:42.361Z,16.01
2023-04-18T09:56:08.823Z,15.74
2023-04-18T09:58:35.262Z,16.10
2023-04-18T10:01:01.734Z,16.26
2023-04-18T10:03:28.171Z,16.25
2023-04-18T10:05:57.093Z,15.78
2023-04-18T10:08:24.152Z,15.93
2023-04-18T10:10:50.581Z,15.91
2023-04-18T10:13:16.988Z,15.97
2023-04-18T10:15:45.244Z,16.13
2023-04-18T10:18:14.985Z,16.17
2023-04-18T10:20:41.520Z,16.24
2023-04-18T10:23:08.029Z,16.13
2023-04-18T10:25:34.403Z,15.92
2023-04-18T10:28:00.836Z,15.91
2023-04-18T10:30:27.225Z,15.72
2023-04-18T10:32:53.769Z,15.87
2023-04-18T10:35:20.192Z,15.86
2023-04-18T10:37:46.702Z,16.15
2023-04-18T10:40:13.108Z,16.10
2023-04-18T10:42:39.500Z,16.37
2023-04-18T10:45:05.957Z,16.58
2023-04-18T10:47:32.587Z,16.35
2023-04-18T10:49:59.346Z,16.03
2023-04-18T10:52:25.705Z,16.26
2023-04-18T10:54:52.308Z,16.24
2023-04-18T10:57:18.748Z,15.82
2023-04-18T10:59:45.147Z,15.99
2023-04-18T11:02:11.586Z,16.23
2023-04-18T11:04:40.386Z,16.53
2023-04-18T11:07:06.830Z,16.47
2023-04-18T11:09:33.206Z,16.54
2023-04-18T11:11:59.591Z,16.57
2023-04-18T11:14:26.167Z,16.91
2023-04-18T11:16:52.564Z,16.73
2023-04-18T11:19:18.987Z,16.82
2023-04-18T11:21:45.414Z,17.01
2023-04-18T11:24:12.021Z,17.04
2023-04-18T11:26:38.651Z,17.14
2023-04-18T11:29:05.149Z,17.22
2023-04-18T11:31:31.600Z,17.16
2023-04-18T11:33:58.129Z,17.15
2023-04-18T11:36:24.635Z,17.27
2023-04-18T11:38:51.120Z,16.90
2023-04-18T11:41:17.699Z,17.08
2023-04-18T11:43:44.095Z,17.29
2023-04-18T11:46:10.617Z,17.35
2023-04-18T11:48:37.116Z,17.52
2023-04-18T11:51:03.524Z,17.61
2023-04-18T11:53:29.924Z,17.71
2023-04-18T11:55:56.419Z,17.95
2023-04-18T11:58:22.843Z,17.86
2023-04-18T12:00:49.259Z,17.99
2023-04-18T12:03:15.844Z,17.92
2023-04-18T12:05:42.523Z,18.04
2023-04-18T12:08:08.996Z,18.13
2023-04-18T12:10:35.399Z,18.16
2023-04-18T12:13:01.781Z,18.10
2023-04-18T12:15:28.207Z,18.13
2023-04-18T12:17:54.662Z,18.12
2023-04-18T12:20:21.078Z,18.03
2023-04-18T12:22:47.461Z,18.07
2023-04-18T12:25:13.829Z,17.87
2023-04-18T12:27:40.211Z,17.58
2023-04-18T12:30:06.635Z,17.68
2023-04-18T12:32:33.037Z,17.90
2023-04-18T12:34:59.614Z,18.09
2023-04-18T12:37:26.051Z,18.06
2023-04-18T12:39:52.466Z,17.86
2023-04-18T12:42:19.000Z,17.84
2023-04-18T12:44:46.985Z,17.95
2023-04-18T12:47:14.523Z,17.79
2023-04-18T12:49:40.955Z,17.99
2023-04-18T12:52:07.359Z,18.11
2023-04-18T12:54:33.802Z,18.14
2023-04-18T12:57:00.693Z,18.30
2023-04-18T12:59:27.161Z,18.43
2023-04-18T13:01:53.777Z,18.68
2023-04-18T13:04:20.439Z,18.70
2023-04-18T13:06:46.954Z,18.67
2023-04-18T13:09:13.658Z,18.84
2023-04-18T13:11:40.344Z,18.43
2023-04-18T13:14:06.765Z,18.56
2023-04-18T13:16:33.229Z,18.48
2023-04-18T13:18:59.640Z,18.33
2023-04-18T13:21:26.076Z,18.32
2023-04-18T13:23:52.939Z,18.20
2023-04-18T13:26:19.341Z,18.42
2023-04-18T13:28:45.762Z,18.44
2023-04-18T13:31:12.697Z,18.67
2023-04-18T13:33:39.774Z,18.76
2023-04-18T13:36:06.417Z,19.07
2023-04-18T13:38:32.826Z,19.17
2023-04-18T13:41:10.816Z,19.20
2023-04-18T13:43:39.103Z,19.44
2023-04-18T13:46:05.523Z,19.52
2023-04-18T13:48:32.061Z,19.17
2023-04-18T13:50:58.472Z,19.43
2023-04-18T13:53:24.876Z,19.32
2023-04-18T13:55:51.317Z,19.20
2023-04-18T13:58:17.713Z,19.31
2023-04-18T14:00:44.129Z,19.33
2023-04-18T14:03:10.890Z,19.35
2023-04-18T14:05:37.472Z,19.37
2023-04-18T14:08:03.851Z,19.23
2023-04-18T14:10:30.228Z,19.34
2023-04-18T14:12:56.621Z,19.47
2023-04-18T14:15:23.057Z,19.64
2023-04-18T14:17:49.494Z,19.63
2023-04-18T14:20:15.910Z,19.91
2023-04-18T14:22:42.279Z,20.00
2023-04-18T14:25:08.702Z,20.08
2023-04-18T14:27:35.119Z,20.35
2023-04-18T14:30:01.581Z,20.59
2023-04-18T14:32:28.142Z,20.76
2023-04-18T14:34:54.775Z,21.04
2023-04-18T14:37:21.271Z,20.96
2023-04-18T14:39:47.694Z,21.03
2023-04-18T14:42:14.156Z,21.64
2023-04-18T14:44:40.711Z,21.86
2023-04-18T14:47:07.227Z,22.40
2023-04-18T14:49:33.630Z,22.68
2023-04-18T14:52:00.114Z,23.25
2023-04-18T14:54:26.560Z,23.37
2023-04-18T14:56:52.987Z,23.92
2023-04-18T14:59:19.773Z,24.38
2023-04-18T15:01:46.520Z,24.95
2023-04-18T15:04:13.268Z,25.08
2023-04-18T15:06:40.028Z,25.71
2023-04-18T15:09:06.508Z,25.76
2023-04-18T15:11:32.927Z,26.48
2023-04-18T15:13:59.321Z,26.86
2023-04-18T15:16:25.993Z,27.29
2023-04-18T15:18:52.422Z,27.68
2023-04-18T15:21:18.836Z,27.45
2023-04-18T15:23:45.212Z,28.33
2023-04-18T15:26:11.691Z,28.48
2023-04-18T15:28:38.099Z,28.68
2023-04-18T15:31:04.552Z,28.81
2023-04-18T15:33:30.952Z,28.90
2023-04-18T15:35:57.345Z,28.96
2023-04-18T15:38:23.926Z,29.52
2023-04-18T15:40:50.379Z,29.07
2023-04-18T15:43:16.756Z,29.58
2023-04-18T15:45:43.253Z,29.40
2023-04-18T15:48:09.717Z,29.14
2023-04-18T15:50:36.179Z,30.16
2023-04-18T15:53:02.592Z,30.46
2023-04-18T15:55:29.054Z,30.03
2023-04-18T15:57:55.506Z,30.45
2023-04-18T16:00:21.890Z,30.47
2023-04-18T16:02:48.408Z,30.06
2023-04-18T16:05:14.872Z,29.73
2023-04-18T16:07:41.366Z,29.35
2023-04-18T16:10:07.960Z,29.27
2023-04-18T16:12:34.359Z,29.07
2023-04-18T16:15:00.788Z,29.11
2023-04-18T16:17:27.312Z,29.36
2023-04-18T16:19:53.765Z,29.14
2023-04-18T16:22:20.315Z,28.57
2023-04-18T16:24:46.726Z,26.57
2023-04-18T16:27:13.329Z,25.18
2023-04-18T16:29:39.705Z,24.29
2023-04-18T16:32:06.128Z,23.55
2023-04-18T16:34:32.498Z,23.04
2023-04-18T16:36:58.874Z,22.26
2023-04-18T16:39:25.269Z,22.07
2023-04-18T16:41:53.275Z,21.73
2023-04-18T16:44:19.720Z,21.59
2023-04-18T16:46:46.330Z,21.26
2023-04-18T16:49:12.752Z,20.52
2023-04-18T16:51:39.169Z,20.47
2023-04-18T16:54:05.558Z,20.25
2023-04-18T16:56:32.076Z,20.30
2023-04-18T16:58:58.608Z,20.14
2023-04-18T17:01:25.048Z,19.92
2023-04-18T17:03:51.528Z,20.02
2023-04-18T17:06:18.094Z,19.90
2023-04-18T17:08:44.776Z,19.93
2023-04-18T17:11:11.296Z,19.83
2023-04-18T17:13:37.829Z,19.71
2023-04-18T17:16:04.237Z,19.67
2023-04-18T17:18:30.739Z,19.62
2023-04-18T17:20:59.408Z,19.66
2023-04-18T17:23:25.785Z,19.29
2023-04-18T17:25:52.189Z,19.34
2023-04-18T17:28:18.815Z,19.19
2023-04-18T17:30:45.289Z,19.20
2023-04-18T17:33:11.718Z,18.67
2023-04-18T17:38:18.654Z,18.70
2023-04-18T17:40:45.354Z,18.64
2023-04-18T17:43:13.379Z,18.56
2023-04-18T17:45:48.188Z,18.62
2023-04-18T17:48:14.835Z,18.62
2023-04-18T17:50:41.310Z,18.23
2023-04-18T17:53:09.783Z,18.26
2023-04-18T17:55:39.458Z,18.29
2023-04-18T17:58:05.928Z,18.02
2023-04-18T18:00:32.498Z,17.83
2023-04-18T18:02:59.020Z,17.40
2023-04-18T18:05:34.998Z,17.44
2023-04-18T18:08:01.379Z,17.52
2023-04-18T18:10:28.290Z,17.69
2023-04-18T18:12:54.676Z,17.32
2023-04-18T18:15:21.227Z,17.47
2023-04-18T18:17:50.890Z,17.51
2023-04-18T18:20:18.808Z,17.11
2023-04-18T18:22:45.552Z,17.02
2023-04-18T18:25:14.722Z,16.94
2023-04-18T18:27:43.339Z,16.98
2023-04-18T18:30:09.917Z,16.82
2023-04-18T18:32:36.535Z,16.73
2023-04-18T18:35:03.162Z,16.96
2023-04-18T18:37:29.565Z,16.72
2023-04-18T18:39:55.975Z,16.87
2023-04-18T18:42:25.234Z,16.86
2023-04-18T18:44:51.721Z,16.64
2023-04-18T18:47:18.208Z,16.71
2023-04-18T18:49:47.204Z,16.60
2023-04-18T18:52:19.496Z,16.65
2023-04-18T18:54:49.075Z,16.48
2023-04-18T18:57:15.809Z,16.46
2023-04-18T18:59:42.647Z,16.62
2023-04-18T19:02:15.089Z,16.77
2023-04-18T19:04:42.237Z,16.69
2023-04-18T19:07:08.965Z,16.71
2023-04-18T19:09:36.888Z,16.56
2023-04-18T19:12:03.478Z,16.63
2023-04-18T19:14:30.117Z,16.58
2023-04-18T19:16:56.896Z,16.43
2023-04-18T19:19:25.680Z,16.25
2023-04-18T19:21:53.614Z,16.26
2023-04-18T19:24:22.862Z,16.36
2023-04-18T19:26:49.592Z,16.06
2023-04-18T19:29:31.906Z,16.03
2023-04-18T19:32:05.242Z,15.96
2023-04-18T19:37:12.913Z,15.49
2023-04-18T19:39:39.732Z,15.66
2023-04-18T19:42:06.271Z,15.57
2023-04-18T19:44:32.894Z,15.49
2023-04-18T19:46:59.657Z,15.68
2023-04-18T19:49:26.089Z,15.35
2023-04-18T19:51:52.981Z,15.30
2023-04-18T19:54:22.052Z,15.33
2023-04-18T19:56:48.712Z,15.22
2023-04-18T19:59:15.429Z,14.94
2023-04-18T20:01:42.215Z,15.35
2023-04-18T20:04:08.860Z,15.33
2023-04-18T20:06:35.632Z,15.08
2023-04-18T20:09:05.070Z,15.20
2023-04-18T20:11:31.445Z,15.10
2023-04-18T20:13:57.944Z,15.28
2023-04-18T20:16:24.683Z,15.02
2023-04-18T20:18:52.291Z,15.21
2023-04-18T20:21:20.222Z,15.16
2023-04-18T20:23:48.722Z,14.95
2023-04-18T20:26:15.266Z,15.21
2023-04-18T20:28:43.432Z,15.42
2023-04-18T20:31:09.894Z,15.38
2023-04-18T20:33:36.492Z,15.46
2023-04-18T20:36:03.348Z,15.58
2023-04-18T20:38:29.964Z,15.74
2023-04-18T20:40:56.618Z,15.75
2023-04-18T20:43:23.072Z,15.79
2023-04-18T20:45:51.162Z,15.82
2023-04-18T20:48:17.959Z,15.75
2023-04-18T20:50:44.336Z,15.71
2023-04-18T20:53:10.928Z,15.83
2023-04-18T20:55:37.676Z,15.79
2023-04-18T20:58:04.193Z,15.71
2023-04-18T21:00:36.184Z,15.71
2023-04-18T21:03:02.724Z,15.57
2023-04-18T21:05:32.635Z,15.58
2023-04-18T21:07:59.071Z,15.60
2023-04-18T21:10:25.525Z,15.64
2023-04-18T21:12:52.072Z,15.67
2023-04-18T21:15:18.663Z,15.67
2023-04-18T21:17:45.116Z,15.68
2023-04-18T21:20:12.254Z,15.74
2023-04-18T21:22:38.638Z,15.48
2023-04-18T21:25:05.161Z,15.26
2023-04-18T21:27:33.964Z,15.12
2023-04-18T21:30:01.769Z,14.88
2023-04-18T21:32:35.561Z,14.80
2023-04-18T21:35:01.977Z,15.05
2023-04-18T21:37:28.428Z,14.82
2023-04-18T21:39:57.061Z,14.84
2023-04-18T21:42:26.863Z,15.11
2023-04-18T21:44:53.301Z,15.23
2023-04-18T21:47:19.710Z,15.34
2023-04-18T21:49:48.049Z,15.40
2023-04-18T21:52:21.880Z,15.21
2023-04-18T21:54:48.352Z,15.19
2023-04-18T21:57:14.787Z,15.26
2023-04-18T21:59:41.162Z,15.07
2023-04-18T22:02:09.961Z,15.15
2023-04-18T22:04:36.444Z,15.15
2023-04-18T22:07:02.825Z,14.93
2023-04-18T22:09:29.210Z,14.97
2023-04-18T22:11:55.592Z,15.26
2023-04-18T22:14:22.302Z,15.25
2023-04-18T22:16:50.873Z,15.30
2023-04-18T22:19:17.381Z,15.07
2023-04-18T22:21:43.795Z,15.17
2023-04-18T22:24:10.166Z,15.22
2023-04-18T22:26:36.509Z,15.20
2023-04-18T22:29:02.952Z,15.26
2023-04-18T22:31:29.378Z,15.39
2023-04-18T22:33:55.785Z,15.36
2023-04-18T22:36:22.195Z,15.35
2023-04-18T22:38:48.576Z,15.28
2023-04-18T22:41:15.006Z,15.19
2023-04-18T22:43:41.379Z,15.27
2023-04-18T22:46:07.825Z,14.90
2023-04-18T22:48:34.278Z,15.11
2023-04-18T22:51:00.790Z,15.22
2023-04-18T22:53:27.169Z,15.03
2023-04-18T22:55:53.642Z,15.14
2023-04-18T22:58:20.200Z,15.01
2023-04-18T23:00:46.603Z,15.09
2023-04-18T23:03:13.111Z,14.88
2023-04-18T23:05:39.546Z,14.90
2023-04-18T23:08:05.979Z,14.97
2023-04-18T23:10:32.369Z,14.94
2023-04-18T23:12:58.806Z,14.62
2023-04-18T23:15:25.200Z,14.75
2023-04-18T23:17:51.590Z,14.87
2023-04-18T23:20:17.985Z,14.95
2023-04-18T23:22:44.415Z,14.92
2023-04-18T23:25:10.770Z,14.94
2023-04-18T23:27:37.203Z,14.94
2023-04-18T23:30:03.810Z,14.94
2023-04-18T23:32:30.241Z,14.98
2023-04-18T23:34:56.671Z,14.91
2023-04-18T23:37:23.072Z,14.89
2023-04-18T23:39:49.519Z,14.78
2023-04-18T23:42:15.884Z,14.89
2023-04-18T23:44:42.274Z,14.91
2023-04-18T23:47:08.676Z,14.87
2023-04-18T23:49:35.155Z,14.89
2023-04-18T23:52:01.535Z,14.78
2023-04-18T23:54:27.948Z,14.84
2023-04-18T23:56:54.417Z,14.83
2023-04-18T23:59:20.786Z,14.65
